Time;durP1;ratioP1;P1;durP2;ratioP2;P2;SDS_P1;SDS_P2;PMS_P1;PMS_P2;Temp;Humidity;BMP_temperature;BMP_pressure;BME280_temperature;BME280_humidity;BME280_pressure;Samples;Min_cycle;Max_cycle;Signal;HPM_P1;HPM_P2
2024/01/08 00:00:21;;;;;;;;;31.25;25.50;;;;;;;;5100137;27;45325;-80
2024/01/08 00:02:46;;;;;;;;;25.25;22.00;;;;;;;;5100972;27;45458;-80
2024/01/08 00:05:12;;;;;;;;;27.25;23.00;;;;;;;;5101372;27;45306;-80
2024/01/08 00:07:37;;;;;;;;;27.25;24.25;;;;;;;;5100916;27;45344;-80
2024/01/08 00:10:03;;;;;;;;;25.25;24.00;;;;;;;;5101046;27;45348;-80
2024/01/08 00:12:28;;;;;;;;;20.75;18.50;;;;;;;;5101391;27;45278;-80
2024/01/08 00:14:53;;;;;;;;;29.75;25.25;;;;;;;;5102172;27;45571;-80
2024/01/08 00:17:18;;;;;;;;;28.75;25.00;;;;;;;;5101569;27;45489;-80
2024/01/08 00:19:43;;;;;;;;;24.75;24.50;;;;;;;;5102029;27;45287;-80
2024/01/08 00:22:09;;;;;;;;;31.25;30.50;;;;;;;;5083143;27;45336;-80
2024/01/08 00:24:34;;;;;;;;;24.75;24.00;;;;;;;;5101872;27;45326;-80
2024/01/08 00:26:59;;;;;;;;;29.50;25.25;;;;;;;;5084893;27;46576;-80
2024/01/08 00:29:24;;;;;;;;;25.00;25.00;;;;;;;;5103186;27;45490;-80
2024/01/08 00:31:49;;;;;;;;;24.00;21.75;;;;;;;;5102301;27;45258;-80
2024/01/08 00:34:14;;;;;;;;;23.75;20.75;;;;;;;;5101422;27;45400;-79
2024/01/08 00:36:40;;;;;;;;;26.25;23.75;;;;;;;;5101843;27;45909;-80
2024/01/08 00:39:06;;;;;;;;;22.50;20.25;;;;;;;;5101045;27;45114;-80
2024/01/08 00:41:31;;;;;;;;;23.00;19.00;;;;;;;;5101537;27;45173;-80
2024/01/08 00:43:56;;;;;;;;;22.00;20.00;;;;;;;;5101244;27;45533;-80
2024/01/08 00:46:21;;;;;;;;;24.25;19.75;;;;;;;;5101539;27;45350;-80
2024/01/08 00:48:46;;;;;;;;;24.50;22.00;;;;;;;;5101672;27;45207;-80
2024/01/08 00:51:12;;;;;;;;;23.50;21.00;;;;;;;;5099905;27;45258;-80
2024/01/08 00:53:37;;;;;;;;;24.25;23.00;;;;;;;;5100240;27;45552;-80
2024/01/08 00:56:02;;;;;;;;;28.25;25.75;;;;;;;;5100784;27;46158;-80
2024/01/08 00:58:28;;;;;;;;;23.00;20.00;;;;;;;;5083253;27;45268;-80
2024/01/08 01:00:53;;;;;;;;;21.00;20.75;;;;;;;;5080043;28;45260;-80
2024/01/08 01:03:18;;;;;;;;;20.50;20.25;;;;;;;;5080045;28;45328;-80
2024/01/08 01:05:43;;;;;;;;;20.75;19.75;;;;;;;;5080045;28;46257;-80
2024/01/08 01:08:08;;;;;;;;;25.25;19.25;;;;;;;;5081358;28;45441;-80
2024/01/08 01:10:34;;;;;;;;;18.00;16.50;;;;;;;;5079324;28;45307;-81
2024/01/08 01:12:59;;;;;;;;;17.00;16.75;;;;;;;;5080324;28;45473;-80
2024/01/08 01:15:24;;;;;;;;;24.25;21.25;;;;;;;;5079936;28;45240;-80
2024/01/08 01:17:49;;;;;;;;;19.25;16.25;;;;;;;;5080245;28;45264;-80
2024/01/08 01:20:14;;;;;;;;;19.50;19.50;;;;;;;;5080014;28;45293;-80
2024/01/08 01:22:40;;;;;;;;;19.75;19.75;;;;;;;;5061617;28;45236;-80
2024/01/08 01:25:05;;;;;;;;;22.00;20.25;;;;;;;;5080222;28;46267;-80
2024/01/08 01:27:30;;;;;;;;;22.25;20.75;;;;;;;;5081123;28;45315;-80
2024/01/08 01:29:55;;;;;;;;;25.25;22.50;;;;;;;;5061176;28;45296;-78
2024/01/08 01:32:20;;;;;;;;;20.00;19.00;;;;;;;;5078093;28;45465;-80
2024/01/08 01:34:46;;;;;;;;;24.25;21.50;;;;;;;;5078761;28;45914;-80
2024/01/08 01:37:11;;;;;;;;;21.00;16.00;;;;;;;;5079686;28;45472;-80
2024/01/08 01:39:36;;;;;;;;;20.75;17.25;;;;;;;;5079093;28;45315;-80
2024/01/08 01:42:01;;;;;;;;;17.75;16.00;;;;;;;;5078706;28;45451;-80
2024/01/08 01:44:26;;;;;;;;;17.25;15.00;;;;;;;;5079364;28;45475;-79
2024/01/08 01:46:53;;;;;;;;;18.25;15.50;;;;;;;;5079438;28;45336;-80
2024/01/08 01:49:20;;;;;;;;;15.75;14.75;;;;;;;;5079983;28;45284;-80
2024/01/08 01:51:46;;;;;;;;;12.75;11.75;;;;;;;;5079374;28;45363;-81
2024/01/08 01:54:13;;;;;;;;;17.50;14.50;;;;;;;;5081952;28;45420;-80
2024/01/08 01:56:43;;;;;;;;;19.75;16.25;;;;;;;;5085823;27;45213;-80
2024/01/08 01:59:08;;;;;;;;;18.50;18.50;;;;;;;;5103179;27;45419;-80
2024/01/08 02:01:34;;;;;;;;;14.50;14.50;;;;;;;;5105108;27;45326;-80
2024/01/08 02:04:01;;;;;;;;;12.00;12.00;;;;;;;;5103828;27;45717;-80
2024/01/08 02:06:27;;;;;;;;;18.00;16.25;;;;;;;;5103054;27;45268;-80
2024/01/08 02:08:53;;;;;;;;;16.25;16.00;;;;;;;;5104699;27;45413;-80
2024/01/08 02:11:18;;;;;;;;;15.33;15.33;;;;;;;;5104508;27;45425;-79
2024/01/08 02:13:43;;;;;;;;;15.50;15.25;;;;;;;;5103506;27;46531;-80
2024/01/08 02:16:08;;;;;;;;;16.00;16.00;;;;;;;;5085445;27;45231;-80
2024/01/08 02:18:34;;;;;;;;;13.67;12.67;;;;;;;;5104417;27;45524;-80
2024/01/08 02:20:59;;;;;;;;;13.00;12.75;;;;;;;;5104291;27;45262;-80
2024/01/08 02:23:24;;;;;;;;;14.33;12.33;;;;;;;;5104633;27;45338;-80
2024/01/08 02:25:49;;;;;;;;;15.00;14.00;;;;;;;;5102938;27;45211;-81
2024/01/08 02:28:14;;;;;;;;;12.25;12.00;;;;;;;;5084442;27;45291;-81
2024/01/08 02:30:40;;;;;;;;;12.33;11.67;;;;;;;;5102604;27;45187;-80
2024/01/08 02:33:05;;;;;;;;;10.33;10.33;;;;;;;;5102699;27;45458;-80
2024/01/08 02:35:30;;;;;;;;;8.50;6.75;;;;;;;;5104077;27;45278;-79
2024/01/08 02:37:55;;;;;;;;;11.00;11.00;;;;;;;;5104423;27;45187;-80
2024/01/08 02:40:20;;;;;;;;;12.33;11.33;;;;;;;;5103581;27;45439;-81
2024/01/08 02:42:46;;;;;;;;;11.33;11.33;;;;;;;;5104875;27;46275;-80
2024/01/08 02:45:11;;;;;;;;;19.33;12.33;;;;;;;;5103189;27;45315;-80
2024/01/08 02:47:37;;;;;;;;;10.00;10.00;;;;;;;;5104830;27;45286;-81
2024/01/08 02:50:06;;;;;;;;;12.33;12.33;;;;;;;;5103978;27;45460;-80
2024/01/08 02:52:31;;;;;;;;;16.67;12.33;;;;;;;;5102838;27;45420;-80
2024/01/08 02:54:57;;;;;;;;;13.33;11.00;;;;;;;;5105232;27;45235;-80
2024/01/08 02:57:22;;;;;;;;;13.33;10.67;;;;;;;;5078324;28;45392;-80
2024/01/08 02:59:47;;;;;;;;;12.33;9.33;;;;;;;;5085274;28;45557;-80
2024/01/08 03:02:12;;;;;;;;;14.00;12.33;;;;;;;;5085511;28;45263;-78
2024/01/08 03:04:38;;;;;;;;;10.67;10.00;;;;;;;;5065487;28;45678;-80
2024/01/08 03:07:03;;;;;;;;;9.67;9.00;;;;;;;;5084876;28;45256;-80
2024/01/08 03:09:28;;;;;;;;;14.75;12.25;;;;;;;;5064645;28;45363;-80
2024/01/08 03:11:53;;;;;;;;;10.33;10.33;;;;;;;;5084679;28;45260;-79
2024/01/08 03:14:19;;;;;;;;;12.00;11.50;;;;;;;;5083029;28;45313;-80
2024/01/08 03:16:44;;;;;;;;;11.00;11.00;;;;;;;;5084168;28;45276;-80
2024/01/08 03:19:09;;;;;;;;;13.00;12.50;;;;;;;;5083306;28;45331;-80
2024/01/08 03:21:34;;;;;;;;;14.00;11.33;;;;;;;;5083513;28;45991;-80
2024/01/08 03:24:00;;;;;;;;;14.00;11.00;;;;;;;;5082910;28;45182;-80
2024/01/08 03:26:25;;;;;;;;;10.33;10.33;;;;;;;;5084513;28;45171;-80
2024/01/08 03:28:50;;;;;;;;;10.67;10.67;;;;;;;;5082119;28;45432;-81
2024/01/08 03:31:15;;;;;;;;;11.00;10.00;;;;;;;;5075204;28;45222;-80
2024/01/08 03:33:40;;;;;;;;;9.33;9.00;;;;;;;;5044120;28;45589;-80
2024/01/08 03:36:08;;;;;;;;;14.00;11.00;;;;;;;;5062211;28;45218;-80
2024/01/08 03:38:33;;;;;;;;;15.00;13.67;;;;;;;;5063041;28;45303;-80
2024/01/08 03:40:59;;;;;;;;;15.00;13.50;;;;;;;;5063248;28;45347;-79
2024/01/08 03:43:24;;;;;;;;;14.00;13.50;;;;;;;;5063054;28;45284;-79
2024/01/08 03:45:49;;;;;;;;;12.25;12.25;;;;;;;;5062486;28;45509;-80
2024/01/08 03:48:17;;;;;;;;;15.33;14.67;;;;;;;;5062449;28;45497;-80
2024/01/08 03:50:42;;;;;;;;;18.67;17.00;;;;;;;;5062574;28;46804;-79
2024/01/08 03:53:07;;;;;;;;;11.67;11.00;;;;;;;;5062073;28;45257;-79
2024/01/08 03:55:33;;;;;;;;;14.67;14.67;;;;;;;;5062768;28;45796;-80
2024/01/08 03:57:59;;;;;;;;;18.00;14.50;;;;;;;;5088086;27;45336;-80
2024/01/08 04:00:24;;;;;;;;;18.25;15.50;;;;;;;;5102975;27;46274;-80
2024/01/08 04:02:50;;;;;;;;;15.00;14.50;;;;;;;;5103199;27;45221;-79
2024/01/08 04:05:15;;;;;;;;;16.00;14.25;;;;;;;;5103390;27;45230;-80
2024/01/08 04:07:40;;;;;;;;;12.50;12.50;;;;;;;;5103383;27;45213;-80
2024/01/08 04:10:05;;;;;;;;;15.00;14.33;;;;;;;;5104001;27;46544;-79
2024/01/08 04:12:31;;;;;;;;;14.25;14.25;;;;;;;;5103375;27;45692;-80
2024/01/08 04:14:56;;;;;;;;;15.50;13.25;;;;;;;;5102227;27;45331;-78
2024/01/08 04:17:21;;;;;;;;;15.50;15.00;;;;;;;;5103781;27;45278;-80
2024/01/08 04:19:46;;;;;;;;;14.25;12.25;;;;;;;;5100908;27;45217;-79
2024/01/08 04:22:11;;;;;;;;;18.75;14.00;;;;;;;;5101193;27;45464;-79
2024/01/08 04:24:37;;;;;;;;;13.00;11.25;;;;;;;;5103722;27;45572;-79
2024/01/08 04:27:02;;;;;;;;;13.75;13.75;;;;;;;;5103306;27;45367;-80
2024/01/08 04:29:27;;;;;;;;;19.75;14.75;;;;;;;;5103773;27;45251;-80
2024/01/08 04:31:53;;;;;;;;;15.00;13.50;;;;;;;;5103501;27;45321;-80
2024/01/08 04:34:18;;;;;;;;;14.75;14.75;;;;;;;;5102635;27;45331;-80
2024/01/08 04:36:43;;;;;;;;;22.00;22.00;;;;;;;;5103253;27;45311;-80
2024/01/08 04:39:09;;;;;;;;;16.00;14.50;;;;;;;;5101612;27;45455;-80
2024/01/08 04:41:34;;;;;;;;;20.25;18.75;;;;;;;;5101955;27;45522;-80
2024/01/08 04:43:59;;;;;;;;;23.75;22.25;;;;;;;;5102384;27;45336;-79
2024/01/08 04:46:24;;;;;;;;;15.75;15.25;;;;;;;;5103088;27;45583;-79
2024/01/08 04:48:49;;;;;;;;;17.50;16.25;;;;;;;;5101353;27;45362;-81
2024/01/08 04:51:21;;;;;;;;;19.00;17.50;;;;;;;;5101275;27;45437;-80
2024/01/08 04:53:47;;;;;;;;;19.00;15.00;;;;;;;;5103121;27;45259;-80
2024/01/08 04:56:19;;;;;;;;;15.00;11.25;;;;;;;;5100867;27;45298;-80
2024/01/08 04:58:45;;;;;;;;;32.50;24.75;;;;;;;;5082916;27;45514;-81
2024/01/08 05:01:10;;;;;;;;;27.00;24.50;;;;;;;;5082278;28;45331;-80
2024/01/08 05:03:35;;;;;;;;;33.75;33.00;;;;;;;;5084403;28;45312;-80
2024/01/08 05:06:00;;;;;;;;;25.50;23.75;;;;;;;;5080800;28;45300;-80
2024/01/08 05:08:25;;;;;;;;;17.50;15.00;;;;;;;;5080174;28;46013;-79
2024/01/08 05:10:50;;;;;;;;;20.00;15.25;;;;;;;;5080035;28;45424;-80
2024/01/08 05:13:16;;;;;;;;;28.00;24.25;;;;;;;;5082151;28;45823;-78
2024/01/08 05:15:41;;;;;;;;;24.00;23.00;;;;;;;;5082096;28;45422;-81
2024/01/08 05:18:06;;;;;;;;;18.50;18.25;;;;;;;;5084911;28;46635;-80
2024/01/08 05:20:32;;;;;;;;;16.50;16.50;;;;;;;;5081601;28;45609;-80
2024/01/08 05:22:57;;;;;;;;;13.67;13.67;;;;;;;;5081429;28;45446;-80
2024/01/08 05:25:22;;;;;;;;;15.67;15.67;;;;;;;;5081308;28;45541;-81
2024/01/08 05:27:47;;;;;;;;;14.50;14.50;;;;;;;;5083658;28;46149;-81
2024/01/08 05:30:12;;;;;;;;;18.00;15.00;;;;;;;;5085587;28;45304;-80
2024/01/08 05:32:38;;;;;;;;;22.00;19.00;;;;;;;;5086446;28;45354;-80
2024/01/08 05:35:03;;;;;;;;;20.25;14.75;;;;;;;;5085394;28;45375;-80
2024/01/08 05:37:28;;;;;;;;;11.00;11.00;;;;;;;;5084710;28;45671;-80
2024/01/08 05:39:53;;;;;;;;;14.00;14.00;;;;;;;;5084320;28;45306;-81
2024/01/08 05:42:19;;;;;;;;;11.25;11.25;;;;;;;;5085816;28;45618;-80
2024/01/08 05:44:46;;;;;;;;;18.00;13.75;;;;;;;;5066499;28;45445;-80
2024/01/08 05:47:12;;;;;;;;;14.25;11.75;;;;;;;;5065554;28;48232;-80
2024/01/08 05:49:38;;;;;;;;;9.67;9.67;;;;;;;;5085314;28;45208;-79
2024/01/08 05:52:03;;;;;;;;;28.00;22.25;;;;;;;;5085252;28;45283;-80
2024/01/08 05:54:28;;;;;;;;;14.25;13.75;;;;;;;;5084297;28;45508;-80
2024/01/08 05:56:53;;;;;;;;;15.00;12.67;;;;;;;;5087168;27;45462;-80
2024/01/08 05:59:18;;;;;;;;;15.25;14.25;;;;;;;;5103143;27;45192;-81
2024/01/08 06:01:47;;;;;;;;;10.00;10.00;;;;;;;;5085432;27;45326;-80
2024/01/08 06:04:12;;;;;;;;;61.00;48.25;;;;;;;;5084891;27;47169;-80
2024/01/08 06:06:37;;;;;;;;;14.00;13.33;;;;;;;;5083697;27;45376;-80
2024/01/08 06:09:03;;;;;;;;;19.50;19.50;;;;;;;;5065204;28;45363;-79
2024/01/08 06:11:28;;;;;;;;;18.50;18.00;;;;;;;;5082763;28;46069;-80
2024/01/08 06:13:53;;;;;;;;;20.50;14.50;;;;;;;;5082337;28;45361;-80
2024/01/08 06:16:18;;;;;;;;;32.25;24.75;;;;;;;;5081799;28;46088;-80
2024/01/08 06:18:44;;;;;;;;;15.50;15.50;;;;;;;;5082414;28;45314;-80
2024/01/08 06:21:09;;;;;;;;;16.00;15.75;;;;;;;;5064254;28;45477;-80
2024/01/08 06:23:35;;;;;;;;;15.00;15.00;;;;;;;;5082640;28;45389;-79
2024/01/08 06:26:02;;;;;;;;;18.50;18.50;;;;;;;;5084141;28;45371;-80
2024/01/08 06:28:27;;;;;;;;;43.00;38.75;;;;;;;;5082852;28;45251;-80
2024/01/08 06:30:52;;;;;;;;;29.00;27.75;;;;;;;;5082513;28;45194;-80
2024/01/08 06:33:17;;;;;;;;;34.50;32.75;;;;;;;;5082046;28;45201;-81
2024/01/08 06:35:43;;;;;;;;;32.25;29.75;;;;;;;;5082144;28;45378;-81
2024/01/08 06:38:08;;;;;;;;;33.25;29.50;;;;;;;;5082701;28;45249;-81
2024/01/08 06:40:33;;;;;;;;;18.00;16.25;;;;;;;;5081688;28;45568;-80
2024/01/08 06:42:58;;;;;;;;;43.50;37.50;;;;;;;;5081565;28;45197;-81
2024/01/08 06:45:24;;;;;;;;;26.25;25.00;;;;;;;;5081387;28;46184;-81
2024/01/08 06:47:49;;;;;;;;;20.25;18.75;;;;;;;;5081276;28;45162;-80
2024/01/08 06:50:14;;;;;;;;;19.00;17.75;;;;;;;;5081676;28;45286;-81
2024/01/08 06:52:39;;;;;;;;;17.75;17.25;;;;;;;;5081236;28;45232;-81
2024/01/08 06:55:05;;;;;;;;;7.00;7.00;;;;;;;;5081533;28;45294;-80
2024/01/08 06:57:30;;;;;;;;;14.75;14.50;;;;;;;;5081263;28;45184;-80
2024/01/08 06:59:55;;;;;;;;;19.25;17.75;;;;;;;;5081416;28;45182;-80
2024/01/08 07:02:20;;;;;;;;;19.25;17.50;;;;;;;;5081280;28;45171;-80
2024/01/08 07:04:46;;;;;;;;;20.75;20.25;;;;;;;;5081309;28;46163;-79
2024/01/08 07:07:11;;;;;;;;;15.75;14.75;;;;;;;;5063026;28;45410;-81
2024/01/08 07:09:36;;;;;;;;;21.00;15.50;;;;;;;;5063104;28;45433;-81
2024/01/08 07:12:02;;;;;;;;;30.75;27.75;;;;;;;;5082079;28;45291;-81
2024/01/08 07:14:28;;;;;;;;;26.75;23.50;;;;;;;;5081910;28;45313;-81
2024/01/08 07:16:53;;;;;;;;;31.50;29.75;;;;;;;;5081441;28;45365;-80
2024/01/08 07:19:18;;;;;;;;;30.00;29.25;;;;;;;;5080755;28;45458;-79
2024/01/08 07:21:44;;;;;;;;;26.50;24.25;;;;;;;;5081038;28;45337;-80
2024/01/08 07:24:10;;;;;;;;;27.25;25.00;;;;;;;;5080993;28;45398;-79
2024/01/08 07:26:35;;;;;;;;;21.00;21.00;;;;;;;;5081019;28;45341;-80
2024/01/08 07:29:01;;;;;;;;;23.50;15.25;;;;;;;;5081169;28;45345;-80
2024/01/08 07:31:29;;;;;;;;;36.00;25.50;;;;;;;;5080730;28;45264;-79
2024/01/08 07:33:54;;;;;;;;;27.75;25.75;;;;;;;;5080427;28;46172;-79
2024/01/08 07:36:20;;;;;;;;;27.00;24.75;;;;;;;;5080604;28;45204;-78
2024/01/08 07:38:45;;;;;;;;;37.50;32.00;;;;;;;;5080496;28;45233;-80
2024/01/08 07:41:11;;;;;;;;;48.00;40.00;;;;;;;;5080531;28;45235;-80
2024/01/08 07:43:37;;;;;;;;;29.75;27.25;;;;;;;;5073060;28;45622;-80
2024/01/08 07:46:03;;;;;;;;;13.50;12.75;;;;;;;;5059912;28;45426;-79
2024/01/08 07:48:28;;;;;;;;;19.00;18.25;;;;;;;;5060174;28;45434;-79
2024/01/08 07:50:55;;;;;;;;;22.25;18.25;;;;;;;;5059396;28;45536;-78
2024/01/08 07:53:20;;;;;;;;;21.75;18.75;;;;;;;;5059918;28;45407;-79
2024/01/08 07:55:45;;;;;;;;;18.50;18.50;;;;;;;;5059599;28;45449;-79
2024/01/08 07:58:13;;;;;;;;;13.25;13.00;;;;;;;;5090096;27;45424;-79
2024/01/08 08:00:38;;;;;;;;;33.25;28.00;;;;;;;;5100710;27;45224;-80
2024/01/08 08:03:03;;;;;;;;;60.50;47.75;;;;;;;;5100686;27;45228;-80
2024/01/08 08:05:29;;;;;;;;;14.00;14.00;;;;;;;;5100813;27;45366;-78
2024/01/08 08:07:54;;;;;;;;;20.25;18.50;;;;;;;;5100828;27;45311;-79
2024/01/08 08:10:19;;;;;;;;;40.00;38.00;;;;;;;;5101433;27;45194;-79
2024/01/08 08:12:44;;;;;;;;;22.00;20.50;;;;;;;;5072169;27;47927;-79
2024/01/08 08:15:10;;;;;;;;;10.50;10.50;;;;;;;;5066963;28;45254;-79
2024/01/08 08:17:36;;;;;;;;;11.25;11.00;;;;;;;;5069107;28;45481;-80
2024/01/08 08:20:05;;;;;;;;;14.75;14.75;;;;;;;;5049621;28;45409;-80
2024/01/08 08:22:30;;;;;;;;;15.75;15.25;;;;;;;;5068045;28;45402;-79
2024/01/08 08:24:55;;;;;;;;;14.25;14.00;;;;;;;;5068443;28;45531;-81
2024/01/08 08:27:21;;;;;;;;;53.50;42.00;;;;;;;;5058710;28;45281;-80
2024/01/08 08:29:47;;;;;;;;;15.00;15.00;;;;;;;;5059938;28;45588;-80
2024/01/08 08:32:12;;;;;;;;;35.25;29.50;;;;;;;;5073355;28;45343;-79
2024/01/08 08:34:39;;;;;;;;;13.50;13.50;;;;;;;;5081141;28;45354;-79
2024/01/08 08:37:05;;;;;;;;;15.50;15.50;;;;;;;;5067082;28;45367;-80
2024/01/08 08:39:30;;;;;;;;;18.75;17.75;;;;;;;;5069874;28;45225;-79
2024/01/08 08:41:55;;;;;;;;;22.50;20.00;;;;;;;;5070810;28;45342;-80
2024/01/08 08:44:21;;;;;;;;;41.00;36.50;;;;;;;;5061666;28;45308;-79
2024/01/08 08:46:46;;;;;;;;;51.00;43.25;;;;;;;;5059707;28;45388;-79
2024/01/08 08:49:12;;;;;;;;;23.75;22.50;;;;;;;;5061495;28;45509;-79
2024/01/08 08:51:37;;;;;;;;;45.75;39.00;;;;;;;;5059455;28;45973;-80
2024/01/08 08:54:04;;;;;;;;;40.25;35.50;;;;;;;;5060180;28;45233;-79
2024/01/08 08:56:35;;;;;;;;;59.25;45.75;;;;;;;;5060478;27;45451;-79
2024/01/08 08:59:00;;;;;;;;;54.00;41.00;;;;;;;;5099384;27;45319;-80
2024/01/08 09:01:25;;;;;;;;;31.00;28.50;;;;;;;;5100462;27;45249;-79
2024/01/08 09:03:52;;;;;;;;;40.75;38.25;;;;;;;;5101906;27;45369;-80
2024/01/08 09:06:17;;;;;;;;;59.75;48.25;;;;;;;;5103852;27;45302;-78
2024/01/08 09:08:42;;;;;;;;;28.25;23.75;;;;;;;;5101860;27;45396;-78
2024/01/08 09:11:08;;;;;;;;;19.25;17.50;;;;;;;;5065374;28;46552;-78
2024/01/08 09:13:33;;;;;;;;;17.50;15.00;;;;;;;;5083765;28;45363;-79
2024/01/08 09:15:59;;;;;;;;;33.50;31.75;;;;;;;;5081958;28;45362;-79
2024/01/08 09:18:25;;;;;;;;;11.75;11.75;;;;;;;;5075908;28;45252;-79
2024/01/08 09:20:50;;;;;;;;;14.00;12.75;;;;;;;;5073696;28;45551;-79
2024/01/08 09:23:15;;;;;;;;;23.25;20.00;;;;;;;;5075137;28;45403;-80
2024/01/08 09:25:40;;;;;;;;;25.50;21.25;;;;;;;;5072602;28;45240;-79
2024/01/08 09:28:06;;;;;;;;;29.25;24.50;;;;;;;;5073054;28;45295;-79
2024/01/08 09:30:31;;;;;;;;;25.50;23.00;;;;;;;;5074113;28;46184;-79
2024/01/08 09:32:56;;;;;;;;;18.50;16.75;;;;;;;;5073868;28;45343;-79
2024/01/08 09:35:21;;;;;;;;;14.33;11.67;;;;;;;;5071939;28;45218;-79
2024/01/08 09:37:46;;;;;;;;;24.50;20.50;;;;;;;;5074481;28;45224;-79
2024/01/08 09:40:12;;;;;;;;;14.33;14.33;;;;;;;;5070349;28;45405;-79
2024/01/08 09:42:39;;;;;;;;;24.00;23.00;;;;;;;;5068188;28;45174;-79
2024/01/08 09:45:09;;;;;;;;;11.75;10.75;;;;;;;;5072000;28;45363;-79
2024/01/08 09:47:34;;;;;;;;;20.00;15.50;;;;;;;;5062385;28;45308;-77
2024/01/08 09:50:00;;;;;;;;;17.00;14.75;;;;;;;;5061809;28;46127;-77
2024/01/08 09:52:25;;;;;;;;;14.00;12.33;;;;;;;;5077712;28;45296;-77
2024/01/08 09:54:51;;;;;;;;;17.25;14.00;;;;;;;;5079196;28;45284;-78
2024/01/08 09:57:16;;;;;;;;;16.25;12.00;;;;;;;;5089835;27;45283;-77
2024/01/08 09:59:41;;;;;;;;;13.33;13.33;;;;;;;;5102603;27;46292;-79
2024/01/08 10:02:14;;;;;;;;;17.25;13.50;;;;;;;;5102746;27;45171;-77
2024/01/08 10:04:39;;;;;;;;;10.00;10.00;;;;;;;;5080485;27;45321;-77
2024/01/08 10:07:08;;;;;;;;;15.25;15.25;;;;;;;;5061163;28;45325;-77
2024/01/08 10:09:33;;;;;;;;;15.00;13.50;;;;;;;;5060223;28;46194;-78
2024/01/08 10:11:59;;;;;;;;;7.00;7.00;;;;;;;;5080324;28;45488;-78
2024/01/08 10:14:25;;;;;;;;;10.25;10.25;;;;;;;;5080937;28;45267;-78
2024/01/08 10:16:50;;;;;;;;;11.50;11.50;;;;;;;;5081023;28;45532;-78
2024/01/08 10:19:17;;;;;;;;;11.50;11.50;;;;;;;;5081359;28;45368;-79
2024/01/08 10:21:43;;;;;;;;;11.75;11.75;;;;;;;;5082058;28;45327;-79
2024/01/08 10:24:08;;;;;;;;;15.25;11.25;;;;;;;;5082113;28;45275;-78
2024/01/08 10:26:34;;;;;;;;;11.00;11.00;;;;;;;;5082088;28;45296;-78
2024/01/08 10:29:01;;;;;;;;;13.00;9.50;;;;;;;;5081471;27;46486;-78
2024/01/08 10:31:26;;;;;;;;;9.00;9.00;;;;;;;;5080960;28;45479;-78
2024/01/08 10:33:51;;;;;;;;;13.25;10.75;;;;;;;;5080267;28;45264;-77
2024/01/08 10:36:17;;;;;;;;;11.75;11.75;;;;;;;;5081630;28;45242;-78
2024/01/08 10:38:43;;;;;;;;;15.00;13.25;;;;;;;;5081378;28;45234;-78
2024/01/08 10:41:11;;;;;;;;;10.25;8.25;;;;;;;;5063120;28;45941;-77
2024/01/08 10:43:36;;;;;;;;;8.33;7.00;;;;;;;;5082668;28;45487;-83
2024/01/08 10:46:04;;;;;;;;;12.00;10.33;;;;;;;;5062828;28;45501;-78
2024/01/08 10:48:42;;;;;;;;;11.33;7.67;;;;;;;;5072021;28;46185;-77
2024/01/08 10:51:08;;;;;;;;;12.00;10.00;;;;;;;;5049267;28;45268;-78
2024/01/08 10:53:46;;;;;;;;;10.00;9.67;;;;;;;;5068561;28;45186;-77
2024/01/08 10:56:16;;;;;;;;;11.50;11.50;;;;;;;;5053375;28;45503;-79
2024/01/08 10:58:49;;;;;;;;;7.75;7.00;;;;;;;;5072252;27;45256;-77
2024/01/08 11:01:15;;;;;;;;;18.75;16.50;;;;;;;;5069703;28;45373;-77
2024/01/08 11:03:40;;;;;;;;;26.75;24.50;;;;;;;;5049622;28;45356;-78
2024/01/08 11:06:06;;;;;;;;;6.67;5.00;;;;;;;;5062343;28;45385;-80
2024/01/08 11:08:33;;;;;;;;;11.33;8.67;;;;;;;;5074137;28;45307;-81
2024/01/08 11:11:04;;;;;;;;;6.33;6.33;;;;;;;;5082514;28;45463;-78
2024/01/08 11:13:30;;;;;;;;;20.25;19.00;;;;;;;;5080482;28;45381;-78
2024/01/08 11:15:56;;;;;;;;;9.25;7.25;;;;;;;;5082897;28;45338;-78
2024/01/08 11:18:28;;;;;;;;;10.33;9.33;;;;;;;;5082360;28;46263;-78
2024/01/08 11:20:55;;;;;;;;;9.00;9.00;;;;;;;;5081377;28;45396;-76
2024/01/08 11:23:37;;;;;;;;;7.00;6.00;;;;;;;;5082151;28;45354;-77
2024/01/08 11:26:04;;;;;;;;;8.67;8.33;;;;;;;;5076232;28;45349;-78
2024/01/08 11:28:31;;;;;;;;;10.00;8.33;;;;;;;;5083051;28;45326;-78
2024/01/08 11:31:10;;;;;;;;;10.00;10.00;;;;;;;;5086478;28;45437;-80
2024/01/08 11:33:36;;;;;;;;;7.00;7.00;;;;;;;;5083931;28;45442;-79
2024/01/08 11:36:10;;;;;;;;;7.00;6.00;;;;;;;;5078536;28;45453;-78
2024/01/08 11:38:39;;;;;;;;;13.00;11.00;;;;;;;;5081512;28;46147;-78
2024/01/08 11:41:05;;;;;;;;;10.00;8.67;;;;;;;;5075664;28;45511;-78
2024/01/08 11:43:30;;;;;;;;;15.00;14.00;;;;;;;;5070784;28;45269;-80
2024/01/08 11:45:55;;;;;;;;;17.00;12.33;;;;;;;;5073351;28;45434;-78
2024/01/08 11:48:20;;;;;;;;;15.00;14.67;;;;;;;;5064262;28;45488;-77
2024/01/08 11:50:46;;;;;;;;;16.00;11.00;;;;;;;;5068385;27;45331;-79
2024/01/08 11:53:12;;;;;;;;;13.75;11.00;;;;;;;;5067871;28;45374;-79
2024/01/08 11:55:39;;;;;;;;;13.25;12.00;;;;;;;;5067693;28;45284;-77
2024/01/08 11:58:05;;;;;;;;;14.33;14.33;;;;;;;;5050402;28;47052;-79
2024/01/08 12:00:30;;;;;;;;;23.25;20.50;;;;;;;;5062311;28;45502;-76
2024/01/08 12:03:02;;;;;;;;;17.75;14.75;;;;;;;;5064883;28;45269;-77
2024/01/08 12:05:27;;;;;;;;;25.75;23.50;;;;;;;;5077409;27;45445;-78
2024/01/08 12:07:54;;;;;;;;;24.00;20.00;;;;;;;;5070015;27;45289;-79
2024/01/08 12:10:19;;;;;;;;;19.50;18.25;;;;;;;;5074564;27;45443;-79
2024/01/08 12:12:45;;;;;;;;;16.75;15.75;;;;;;;;5073518;28;46487;-78
2024/01/08 12:15:10;;;;;;;;;20.25;20.25;;;;;;;;5064986;27;45423;-79
2024/01/08 12:17:36;;;;;;;;;18.75;18.25;;;;;;;;5056248;28;48288;-79
2024/01/08 12:20:03;;;;;;;;;22.00;19.50;;;;;;;;5068479;27;45499;-78
2024/01/08 12:22:28;;;;;;;;;21.50;17.00;;;;;;;;5068964;28;45272;-78
2024/01/08 12:24:57;;;;;;;;;15.50;14.50;;;;;;;;5070550;27;45303;-79
2024/01/08 12:27:23;;;;;;;;;18.75;16.50;;;;;;;;5067097;28;45574;-78
2024/01/08 12:29:49;;;;;;;;;22.75;19.00;;;;;;;;5065668;27;45389;-80
2024/01/08 12:32:16;;;;;;;;;22.25;18.50;;;;;;;;5071709;28;45410;-79
2024/01/08 12:34:41;;;;;;;;;17.75;17.25;;;;;;;;5069112;27;45511;-81
2024/01/08 12:37:07;;;;;;;;;15.75;15.75;;;;;;;;5067328;28;45453;-81
2024/01/08 12:39:36;;;;;;;;;15.00;14.00;;;;;;;;5070332;28;45466;-80
2024/01/08 12:42:04;;;;;;;;;23.00;22.50;;;;;;;;5073493;27;45440;-81
2024/01/08 12:44:30;;;;;;;;;23.75;22.25;;;;;;;;5049644;28;46302;-81
2024/01/08 12:46:56;;;;;;;;;17.50;15.50;;;;;;;;5069458;27;45374;-81
2024/01/08 12:49:22;;;;;;;;;27.25;25.50;;;;;;;;5050043;28;45766;-78
2024/01/08 12:51:47;;;;;;;;;19.50;18.75;;;;;;;;5068107;28;45405;-80
2024/01/08 12:54:12;;;;;;;;;17.75;14.25;;;;;;;;5048704;28;46490;-81
2024/01/08 12:56:38;;;;;;;;;21.50;19.50;;;;;;;;5052582;27;45364;-79
2024/01/08 12:59:03;;;;;;;;;19.00;18.00;;;;;;;;5048224;28;45679;-78
2024/01/08 13:01:29;;;;;;;;;18.50;17.00;;;;;;;;5068112;28;45414;-77
2024/01/08 13:03:54;;;;;;;;;19.00;17.75;;;;;;;;5072118;27;45634;-78
2024/01/08 13:06:22;;;;;;;;;20.25;16.75;;;;;;;;5050596;28;46798;-78
2024/01/08 13:08:47;;;;;;;;;19.25;15.25;;;;;;;;5072328;27;45352;-78
2024/01/08 13:11:13;;;;;;;;;18.00;17.75;;;;;;;;5067790;28;45608;-79
2024/01/08 13:13:38;;;;;;;;;26.00;23.75;;;;;;;;5052350;28;47251;-79
2024/01/08 13:16:03;;;;;;;;;21.75;18.50;;;;;;;;5061514;28;45499;-79
2024/01/08 13:18:29;;;;;;;;;24.00;21.50;;;;;;;;5066408;27;45282;-80
2024/01/08 13:20:54;;;;;;;;;20.00;18.50;;;;;;;;5067131;28;45588;-80
2024/01/08 13:23:19;;;;;;;;;16.25;15.75;;;;;;;;5068227;27;45295;-80
2024/01/08 13:25:47;;;;;;;;;18.50;18.00;;;;;;;;5066170;28;45303;-79
2024/01/08 13:28:12;;;;;;;;;15.00;14.25;;;;;;;;5068865;27;45306;-80
2024/01/08 13:30:38;;;;;;;;;14.50;14.50;;;;;;;;5049611;28;45366;-81
2024/01/08 13:33:03;;;;;;;;;15.00;13.50;;;;;;;;5050910;28;46590;-80
2024/01/08 13:35:29;;;;;;;;;17.00;15.00;;;;;;;;5048245;28;46959;-81
2024/01/08 13:37:54;;;;;;;;;13.00;11.75;;;;;;;;5069409;27;45478;-80
2024/01/08 13:40:21;;;;;;;;;16.00;14.25;;;;;;;;5049774;28;45496;-80
2024/01/08 13:42:49;;;;;;;;;17.50;16.75;;;;;;;;5068828;27;45416;-80
2024/01/08 13:45:15;;;;;;;;;9.25;9.25;;;;;;;;5059724;28;45999;-79
2024/01/08 13:47:40;;;;;;;;;14.33;13.33;;;;;;;;5075439;27;45728;-79
2024/01/08 13:50:07;;;;;;;;;16.00;11.00;;;;;;;;5063832;28;45352;-80
2024/01/08 13:52:32;;;;;;;;;18.50;15.00;;;;;;;;5080506;27;45425;-79
2024/01/08 13:54:57;;;;;;;;;17.00;15.25;;;;;;;;5082184;28;45480;-79
2024/01/08 13:57:22;;;;;;;;;16.50;15.75;;;;;;;;5085520;27;45631;-79
2024/01/08 13:59:47;;;;;;;;;20.25;18.25;;;;;;;;5073385;28;45382;-79
2024/01/08 14:02:13;;;;;;;;;12.25;10.25;;;;;;;;5073909;27;45377;-80
2024/01/08 14:04:38;;;;;;;;;15.50;14.50;;;;;;;;5055415;28;47285;-79
2024/01/08 14:07:03;;;;;;;;;19.75;16.75;;;;;;;;5070711;28;45292;-79
2024/01/08 14:09:28;;;;;;;;;15.33;12.00;;;;;;;;5073104;27;45449;-80